Time;durP1;ratioP1;P1;durP2;ratioP2;P2;SDS_P1;SDS_P2;PMS_P1;PMS_P2;Temp;Humidity;BMP_temperature;BMP_pressure;BME280_temperature;BME280_humidity;BME280_pressure;Samples;Min_cycle;Max_cycle;Signal;HPM_P1;HPM_P2
2024/01/11 00:01:53;;;;;;;218.33;95.47;;;;;;;-7.61;97.49;101772.55;1471339;88;21463;-74
2024/01/11 00:04:20;;;;;;;214.30;95.10;;;;;;;-7.64;97.06;101768.70;1469046;88;22373;-75
2024/01/11 00:06:48;;;;;;;215.05;92.47;;;;;;;-7.68;96.84;101772.13;1471800;88;21397;-75
2024/01/11 00:09:15;;;;;;;225.78;99.35;;;;;;;-7.73;96.87;101767.41;1469178;88;22483;-75
2024/01/11 00:11:42;;;;;;;237.75;99.62;;;;;;;-7.77;97.38;101761.42;1474663;88;21480;-75
2024/01/11 00:14:10;;;;;;;228.07;98.05;;;;;;;-7.80;96.95;101768.25;1471965;88;22549;-75
2024/01/11 00:16:37;;;;;;;233.93;102.00;;;;;;;-7.84;98.29;101773.81;1464244;88;21324;-75
2024/01/11 00:19:04;;;;;;;247.70;97.25;;;;;;;-7.86;99.05;101768.24;1466845;88;21367;-74
2024/01/11 00:21:31;;;;;;;244.37;102.35;;;;;;;-7.86;97.70;101765.67;1473958;88;21548;-75
2024/01/11 00:23:58;;;;;;;225.43;100.50;;;;;;;-7.84;97.45;101761.41;1466233;88;21518;-75
2024/01/11 00:26:25;;;;;;;241.78;102.95;;;;;;;-7.82;97.53;101768.27;1472003;88;21441;-75
2024/01/11 00:28:52;;;;;;;244.07;102.97;;;;;;;-7.82;96.90;101773.41;1480100;88;21419;-75
2024/01/11 00:31:19;;;;;;;227.55;102.22;;;;;;;-7.85;98.89;101767.41;1469975;88;22929;-75
2024/01/11 00:33:47;;;;;;;238.68;98.47;;;;;;;-7.86;98.04;101768.24;1464467;88;21582;-74
2024/01/11 00:36:20;;;;;;;227.30;97.00;;;;;;;-7.86;98.20;101765.23;1476065;88;21397;-75
2024/01/11 00:38:47;;;;;;;240.30;99.85;;;;;;;-7.85;97.46;101761.83;1471988;88;21493;-76
2024/01/11 00:41:15;;;;;;;229.38;97.62;;;;;;;-7.87;97.14;101758.40;1469478;88;22408;-77
2024/01/11 00:43:42;;;;;;;229.55;97.15;;;;;;;-7.88;97.24;101755.41;1467052;88;21368;-77
2024/01/11 00:46:09;;;;;;;231.93;97.57;;;;;;;-7.90;97.58;101754.54;1453298;89;21634;-76
2024/01/11 00:48:36;;;;;;;237.30;102.58;;;;;;;-7.91;97.63;101749.38;1467183;88;21523;-77
2024/01/11 00:51:06;;;;;;;224.37;99.35;;;;;;;-7.93;99.49;101742.97;1467024;88;21524;-77
2024/01/11 00:53:33;;;;;;;223.25;100.90;;;;;;;-7.93;100.00;101742.97;1467957;88;21721;-77
2024/01/11 00:56:01;;;;;;;213.25;95.12;;;;;;;-7.91;100.00;101743.84;1461502;88;21481;-76
2024/01/11 00:58:29;;;;;;;215.60;93.22;;;;;;;-7.90;100.00;101739.12;1467356;88;21574;-76
2024/01/11 01:00:56;;;;;;;196.63;84.17;;;;;;;-7.87;100.00;101733.12;1467379;88;22248;-76
2024/01/11 01:03:24;;;;;;;191.95;88.22;;;;;;;-7.85;100.00;101729.70;1472418;88;21450;-75
2024/01/11 01:05:51;;;;;;;185.60;82.72;;;;;;;-7.85;100.00;101723.28;1467021;88;22477;-77
2024/01/11 01:08:18;;;;;;;189.00;84.13;;;;;;;-7.82;100.00;101723.28;1470936;88;21464;-77
2024/01/11 01:10:46;;;;;;;177.35;80.53;;;;;;;-7.79;100.00;101720.70;1475083;88;21375;-77
2024/01/11 01:13:13;;;;;;;178.00;81.12;;;;;;;-7.77;100.00;101720.29;1463814;88;21575;-76
2024/01/11 01:15:40;;;;;;;282.83;128.95;;;;;;;-7.78;100.00;101713.41;1464043;88;22351;-76
2024/01/11 01:18:07;;;;;;;363.43;165.52;;;;;;;-7.78;100.00;101706.98;1462335;88;21601;-77
2024/01/11 01:20:34;;;;;;;354.60;160.63;;;;;;;-7.78;100.00;101706.98;1451911;89;21390;-77
2024/01/11 01:23:02;;;;;;;523.25;255.77;;;;;;;-7.77;100.00;101709.13;1448891;88;21434;-77
2024/01/11 01:25:29;;;;;;;542.45;270.27;;;;;;;-7.79;100.00;101696.29;1479357;88;21434;-77
2024/01/11 01:27:58;;;;;;;516.20;257.80;;;;;;;-7.79;100.00;101698.86;1463333;88;21606;-77
2024/01/11 01:30:25;;;;;;;455.07;211.12;;;;;;;-7.78;100.00;101690.28;1471070;88;22210;-77
2024/01/11 01:32:54;;;;;;;265.10;121.28;;;;;;;-7.77;100.00;101693.30;1455718;89;21526;-77
2024/01/11 01:35:21;;;;;;;207.30;97.33;;;;;;;-7.77;100.00;101687.27;1479383;88;21434;-76
2024/01/11 01:37:48;;;;;;;223.10;98.37;;;;;;;-7.79;100.00;101680.87;1469803;88;21753;-76
2024/01/11 01:40:16;;;;;;;209.20;94.62;;;;;;;-7.78;100.00;101680.00;1464751;88;21353;-76
2024/01/11 01:42:45;;;;;;;223.72;99.20;;;;;;;-7.78;100.00;101680.00;1470088;88;21448;-78
2024/01/11 01:45:15;;;;;;;217.18;97.92;;;;;;;-7.77;100.00;101679.16;1464831;88;21353;-78
2024/01/11 01:47:43;;;;;;;259.15;112.62;;;;;;;-7.76;100.00;101671.86;1470884;89;21471;-78
2024/01/11 01:50:12;;;;;;;239.38;102.50;;;;;;;-7.72;100.00;101667.14;1463988;88;21376;-76
2024/01/11 01:52:42;;;;;;;231.75;103.53;;;;;;;-7.70;100.00;101665.02;1462687;88;22374;-76
2024/01/11 01:55:12;;;;;;;205.45;94.75;;;;;;;-7.68;100.00;101661.98;1456043;89;21435;-76
2024/01/11 01:57:41;;;;;;;202.62;85.47;;;;;;;-7.67;100.00;101660.72;1469539;88;21368;-77
2024/01/11 02:00:12;;;;;;;218.27;96.10;;;;;;;-7.66;100.00;101659.00;1463782;89;21383;-77
2024/01/11 02:02:43;;;;;;;;;;;;;;;-7.67;100.00;101650.87;1447668;89;21531;-76
2024/01/11 02:05:12;;;;;;;176.93;77.25;;;;;;;-7.70;100.00;101650.87;1430411;90;20294;-77
2024/01/11 02:07:42;;;;;;;186.90;80.42;;;;;;;-7.73;100.00;101640.16;1470774;89;21390;-77
2024/01/11 02:10:12;;;;;;;173.02;81.30;;;;;;;-7.74;100.00;101648.31;1475893;88;21464;-77
2024/01/11 02:12:41;;;;;;;160.93;74.25;;;;;;;-7.74;100.00;101635.86;1469547;88;21369;-77
2024/01/11 02:15:08;;;;;;;149.23;74.12;;;;;;;-7.78;100.00;101628.59;1452405;89;21640;-77
2024/01/11 02:17:36;;;;;;;140.10;67.55;;;;;;;-7.78;100.00;101623.88;1462035;88;21427;-77
2024/01/11 02:20:04;;;;;;;132.30;65.22;;;;;;;-7.78;100.00;101624.73;1462075;88;21522;-78
2024/01/11 02:22:42;;;;;;;120.35;57.95;;;;;;;-7.78;100.00;101615.73;1474323;88;21419;-77
2024/01/11 02:25:09;;;;;;;110.32;53.17;;;;;;;-7.77;100.00;101616.19;1465031;88;21338;-77
2024/01/11 02:27:49;;;;;;;107.95;55.23;;;;;;;-7.74;100.00;101608.87;1466863;88;21559;-77
2024/01/11 02:30:17;;;;;;;105.40;54.05;;;;;;;-7.75;100.00;101608.02;1466967;89;22373;-77
2024/01/11 02:32:47;;;;;;;108.75;52.53;;;;;;;-7.75;100.00;101603.31;1471303;88;21368;-77
2024/01/11 02:35:19;;;;;;;104.87;52.70;;;;;;;-7.73;100.00;101597.31;1469422;88;22270;-77
2024/01/11 02:37:47;;;;;;;107.00;53.28;;;;;;;-7.68;100.00;101592.58;1467165;88;21634;-77
2024/01/11 02:40:15;;;;;;;102.17;49.55;;;;;;;-7.67;100.00;101584.03;1471059;88;21405;-77
2024/01/11 02:42:42;;;;;;;100.97;50.43;;;;;;;-7.63;100.00;101587.84;1467660;88;22352;-77
2024/01/11 02:45:12;;;;;;;101.35;49.40;;;;;;;-7.62;100.00;101586.13;1466901;88;21331;-77
2024/01/11 02:47:39;;;;;;;99.67;50.55;;;;;;;-7.62;100.00;101579.30;1469468;88;21464;-77
2024/01/11 02:50:07;;;;;;;99.50;47.98;;;;;;;-7.62;100.00;101574.56;1471367;88;21531;-77
2024/01/11 02:52:35;;;;;;;101.87;48.28;;;;;;;-7.57;100.00;101576.70;1466588;88;22724;-77
2024/01/11 02:55:03;;;;;;;94.55;48.68;;;;;;;-7.57;100.00;101574.97;1466515;88;21412;-76
2024/01/11 02:57:30;;;;;;;102.50;48.78;;;;;;;-7.58;100.00;101578.41;1467989;88;21575;-76
2024/01/11 02:59:57;;;;;;;94.50;45.88;;;;;;;-7.56;100.00;101579.71;1466553;89;22396;-77
2024/01/11 03:02:24;;;;;;;95.40;47.60;;;;;;;-7.53;100.00;101573.27;1472492;88;21493;-77
2024/01/11 03:04:51;;;;;;;97.12;49.18;;;;;;;-7.53;100.00;101566.84;1471744;88;21368;-76
2024/01/11 03:07:18;;;;;;;113.03;52.73;;;;;;;-7.53;100.00;101574.12;1465002;88;21545;-76
2024/01/11 03:09:45;;;;;;;93.58;45.73;;;;;;;-7.55;100.00;101579.69;1466070;88;21457;-76
2024/01/11 03:12:12;;;;;;;97.53;47.25;;;;;;;-7.53;100.00;101580.98;1466493;88;21420;-76
2024/01/11 03:14:40;;;;;;;92.12;43.35;;;;;;;-7.55;100.00;101574.55;1474442;88;21442;-76
2024/01/11 03:17:08;;;;;;;94.25;47.23;;;;;;;-7.56;100.00;101579.27;1469166;88;21302;-76
2024/01/11 03:19:39;;;;;;;99.25;49.55;;;;;;;-7.56;100.00;101587.42;1477039;88;21369;-76
2024/01/11 03:22:07;;;;;;;96.80;46.42;;;;;;;-7.59;100.00;101583.58;1471750;88;21687;-76
2024/01/11 03:24:39;;;;;;;98.27;46.25;;;;;;;-7.61;100.00;101597.71;1464804;88;22286;-76
2024/01/11 03:27:06;;;;;;;99.50;48.45;;;;;;;-7.66;100.00;101596.86;1470836;88;22248;-76
2024/01/11 03:29:34;;;;;;;101.12;47.50;;;;;;;-7.70;100.00;101600.75;1468064;88;21397;-76
2024/01/11 03:32:01;;;;;;;98.07;46.08;;;;;;;-7.76;100.00;101597.32;1473078;88;22421;-76
2024/01/11 03:34:28;;;;;;;86.53;43.45;;;;;;;-7.80;100.00;101595.59;1464833;88;21375;-76
2024/01/11 03:36:55;;;;;;;92.62;45.10;;;;;;;-7.82;100.00;101596.48;1465906;88;21338;-76
2024/01/11 03:39:25;;;;;;;93.05;46.28;;;;;;;-7.80;100.00;101596.88;1474607;88;21633;-76
2024/01/11 03:41:52;;;;;;;91.28;43.13;;;;;;;-7.78;100.00;101586.17;1463342;88;21479;-76
2024/01/11 03:44:20;;;;;;;85.17;42.20;;;;;;;-7.78;100.00;101586.17;1467654;88;21353;-77
2024/01/11 03:46:48;;;;;;;80.28;39.90;;;;;;;-7.80;100.00;101579.33;1464999;88;22359;-77
2024/01/11 03:49:15;;;;;;;99.35;46.70;;;;;;;-7.86;100.00;101580.19;1467557;88;21375;-77
2024/01/11 03:51:42;;;;;;;90.20;43.50;;;;;;;-7.90;100.00;101582.36;1473269;88;21383;-76
2024/01/11 03:54:09;;;;;;;84.80;44.13;;;;;;;-7.93;100.00;101578.51;1471492;88;21589;-77
2024/01/11 03:56:40;;;;;;;82.92;40.25;;;;;;;-7.93;100.00;101569.52;1462016;88;21427;-77
2024/01/11 03:59:07;;;;;;;87.47;34.65;;;;;;;-7.89;100.00;101569.92;1471518;88;21443;-76
2024/01/11 04:01:41;;;;;;;89.40;42.83;;;;;;;-7.89;100.00;101567.78;1470918;88;21301;-76
2024/01/11 04:04:08;;;;;;;84.67;43.35;;;;;;;-7.93;100.00;101576.37;1462103;88;22272;-78
2024/01/11 04:06:35;;;;;;;79.72;38.70;;;;;;;-7.92;100.00;101576.78;1482388;88;21672;-77
2024/01/11 04:09:02;;;;;;;84.30;41.85;;;;;;;-7.87;100.00;101566.92;1472339;88;21465;-77
2024/01/11 04:11:30;;;;;;;111.05;52.33;;;;;;;-7.86;100.00;101569.91;1463036;88;21485;-77
2024/01/11 04:13:57;;;;;;;90.32;44.98;;;;;;;-7.92;100.00;101571.64;1468418;88;21331;-77
2024/01/11 04:16:24;;;;;;;98.60;45.73;;;;;;;-8.01;100.00;101572.52;1476834;88;21702;-77
2024/01/11 04:18:51;;;;;;;81.97;40.63;;;;;;;-8.06;100.00;101572.52;1469048;88;21965;-76
2024/01/11 04:21:30;;;;;;;88.37;43.65;;;;;;;-8.07;100.00;101563.54;1472465;88;21545;-77
2024/01/11 04:23:57;;;;;;;82.60;39.08;;;;;;;-8.06;100.00;101558.81;1468657;88;21575;-76
2024/01/11 04:26:24;;;;;;;97.47;45.52;;;;;;;-8.10;100.00;101557.97;1477528;88;21375;-76
2024/01/11 04:28:52;;;;;;;76.80;38.78;;;;;;;-8.09;100.00;101558.39;1465408;88;21398;-76
2024/01/11 04:31:19;;;;;;;91.70;43.78;;;;;;;-8.12;100.00;101561.40;1468291;88;21567;-76
2024/01/11 04:33:47;;;;;;;92.20;42.55;;;;;;;-8.22;100.00;101565.70;1464769;88;21354;-76
2024/01/11 04:36:14;;;;;;;87.05;44.38;;;;;;;-8.28;100.00;101557.56;1468232;88;21419;-75
2024/01/11 04:38:41;;;;;;;88.20;42.95;;;;;;;-8.32;100.00;101554.55;1463915;88;21604;-75
2024/01/11 04:41:10;;;;;;;84.10;39.48;;;;;;;-8.31;100.00;101549.87;1467182;88;21516;-75
2024/01/11 04:43:44;;;;;;;93.00;43.33;;;;;;;-8.31;100.00;101549.02;1473552;88;21317;-75
2024/01/11 04:46:22;;;;;;;94.95;45.10;;;;;;;-8.35;100.00;101548.58;1477258;89;21353;-75
2024/01/11 04:48:50;;;;;;;96.15;42.70;;;;;;;-8.37;100.00;101543.45;1471263;88;21559;-75
2024/01/11 04:51:18;;;;;;;80.17;41.13;;;;;;;-8.35;100.00;101536.58;1471867;88;21442;-75
2024/01/11 04:53:46;;;;;;;86.50;39.98;;;;;;;-8.32;100.00;101530.59;1477746;88;21308;-75
2024/01/11 04:56:16;;;;;;;87.08;43.17;;;;;;;-8.35;100.00;101525.03;1466100;88;21346;-75
2024/01/11 04:58:45;;;;;;;100.90;44.27;;;;;;;-8.35;100.00;101531.45;1474034;88;21456;-75
2024/01/11 05:01:15;;;;;;;85.55;41.60;;;;;;;-8.41;100.00;101534.05;1474676;88;21406;-76
2024/01/11 05:03:43;;;;;;;97.62;45.70;;;;;;;-8.50;100.00;101532.34;1465047;88;21523;-76
2024/01/11 05:06:22;;;;;;;98.82;44.30;;;;;;;-8.57;100.00;101540.04;1469332;88;21382;-76
2024/01/11 05:08:54;;;;;;;103.72;48.17;;;;;;;-8.67;100.00;101544.33;1468979;88;21590;-76
2024/01/11 05:11:24;;;;;;;96.40;43.78;;;;;;;-8.70;100.00;101539.19;1464088;88;21442;-76
2024/01/11 05:13:52;;;;;;;104.00;48.70;;;;;;;-8.73;100.00;101550.30;1474474;88;21444;-75
2024/01/11 05:16:25;;;;;;;90.60;44.50;;;;;;;-8.73;100.00;101554.59;1467525;88;22181;-76
2024/01/11 05:18:56;;;;;;;95.60;45.05;;;;;;;-8.74;100.00;101546.47;1462914;88;21597;-76
2024/01/11 05:21:24;;;;;;;89.87;40.05;;;;;;;-8.77;100.00;101545.19;1453773;89;21534;-76
2024/01/11 05:23:52;;;;;;;99.20;46.53;;;;;;;-8.81;100.00;101547.30;1470658;88;21361;-75
2024/01/11 05:26:20;;;;;;;102.42;47.27;;;;;;;-8.85;100.00;101551.58;1474217;88;22424;-74
2024/01/11 05:28:47;;;;;;;99.52;46.95;;;;;;;-8.86;100.00;101548.56;1449701;89;21345;-76
2024/01/11 05:31:16;;;;;;;112.83;53.35;;;;;;;-8.90;100.00;101545.14;1463016;88;21398;-74
2024/01/11 05:33:43;;;;;;;92.10;47.08;;;;;;;-8.90;100.00;101541.30;1462166;88;21360;-74
2024/01/11 05:36:10;;;;;;;106.63;51.28;;;;;;;-8.93;100.00;101533.59;1469293;88;21382;-76
2024/01/11 05:38:40;;;;;;;97.55;44.80;;;;;;;-8.90;100.00;101535.31;1457306;88;22141;-77
2024/01/11 05:41:08;;;;;;;102.47;46.48;;;;;;;-8.89;100.00;101535.73;1471737;88;21449;-74
2024/01/11 05:43:35;;;;;;;102.27;44.45;;;;;;;-8.88;100.00;101529.34;1463384;88;22233;-75
2024/01/11 05:46:03;;;;;;;95.97;44.35;;;;;;;-8.84;100.00;101521.20;1461631;88;21560;-75
2024/01/11 05:48:30;;;;;;;89.45;40.23;;;;;;;-8.83;100.00;101520.38;1471947;88;21375;-75
2024/01/11 05:50:57;;;;;;;105.85;46.08;;;;;;;-8.85;100.00;101524.64;1466917;88;21323;-75
2024/01/11 05:53:27;;;;;;;91.17;44.67;;;;;;;-8.89;100.00;101530.60;1456907;89;21419;-76
2024/01/11 05:55:54;;;;;;;99.10;46.30;;;;;;;-8.90;100.00;101536.16;1469605;88;21325;-75
2024/01/11 05:58:21;;;;;;;118.53;53.38;;;;;;;-8.95;100.00;101542.14;1476478;88;22515;-75
2024/01/11 06:00:48;;;;;;;108.80;50.20;;;;;;;-9.01;100.00;101541.70;1475212;88;21563;-77
2024/01/11 06:03:15;;;;;;;93.78;43.70;;;;;;;-9.06;100.00;101549.84;1470726;88;22484;-75
2024/01/11 06:05:43;;;;;;;109.45;51.95;;;;;;;-9.11;100.00;101550.25;1460948;88;21390;-76
2024/01/11 06:08:10;;;;;;;115.57;52.23;;;;;;;-9.12;100.00;101549.80;1472742;88;22439;-75
2024/01/11 06:10:39;;;;;;;113.62;52.27;;;;;;;-9.13;100.00;101547.66;1470599;88;21360;-79
2024/01/11 06:13:06;;;;;;;116.47;53.65;;;;;;;-9.11;100.00;101545.97;1478916;88;21324;-78
2024/01/11 06:15:33;;;;;;;117.22;54.38;;;;;;;-9.11;100.00;101541.27;1478833;88;21728;-79
2024/01/11 06:18:00;;;;;;;118.87;53.42;;;;;;;-9.09;100.00;101534.02;1463750;88;21449;-79
2024/01/11 06:20:27;;;;;;;122.58;57.53;;;;;;;-9.01;100.00;101531.44;1473080;88;21443;-80
2024/01/11 06:22:55;;;;;;;109.97;51.90;;;;;;;-8.97;100.00;101525.91;1480569;88;21398;-79
2024/01/11 06:25:22;;;;;;;124.82;56.85;;;;;;;-8.96;100.00;101523.33;1472614;88;21323;-79
2024/01/11 06:27:49;;;;;;;130.43;58.38;;;;;;;-8.92;100.00;101525.47;1464098;88;22365;-77
2024/01/11 06:30:17;;;;;;;119.85;53.87;;;;;;;-8.90;100.00;101513.51;1475192;88;21624;-80
2024/01/11 06:32:44;;;;;;;141.07;61.33;;;;;;;-8.90;100.00;101514.79;1474198;88;21524;-78
2024/01/11 06:35:11;;;;;;;151.90;61.30;;;;;;;-8.87;100.00;101503.24;1462475;89;21980;-82
2024/01/11 06:37:39;;;;;;;176.32;67.50;;;;;;;-8.88;100.00;101502.83;1459205;88;21569;-79
2024/01/11 06:40:08;;;;;;;172.20;74.00;;;;;;;-8.88;100.00;101501.11;1470971;88;21434;-79
2024/01/11 06:42:35;;;;;;;164.82;70.87;;;;;;;-8.84;100.00;101499.40;1466770;88;22270;-78
2024/01/11 06:45:03;;;;;;;164.13;65.67;;;;;;;-8.78;100.00;101500.68;1454490;89;21473;-79
2024/01/11 06:47:30;;;;;;;175.20;71.35;;;;;;;-8.75;100.00;101501.96;1467008;88;21464;-79
2024/01/11 06:49:57;;;;;;;185.15;77.12;;;;;;;-8.72;100.00;101498.11;1460669;89;21405;-79
2024/01/11 06:52:25;;;;;;;206.00;84.77;;;;;;;-8.67;100.00;101489.99;1466044;88;21531;-78
2024/01/11 06:54:52;;;;;;;193.72;86.10;;;;;;;-8.65;100.00;101481.02;1467721;88;22107;-78
2024/01/11 06:57:19;;;;;;;219.45;89.28;;;;;;;-8.64;100.00;101471.17;1468443;88;21361;-79
2024/01/11 06:59:46;;;;;;;264.27;103.87;;;;;;;-8.59;100.00;101485.30;1471513;88;22016;-78
2024/01/11 07:02:13;;;;;;;393.00;145.30;;;;;;;-8.56;100.00;101485.30;1473756;88;22313;-78
2024/01/11 07:04:45;;;;;;;406.20;149.35;;;;;;;-8.54;100.00;101488.73;1468851;88;22040;-77
2024/01/11 07:07:13;;;;;;;216.90;93.12;;;;;;;-8.54;100.00;101493.86;1469910;88;21398;-78
2024/01/11 07:09:40;;;;;;;183.50;84.60;;;;;;;-8.54;100.00;101493.86;1465632;88;21671;-78
2024/01/11 07:12:10;;;;;;;179.05;76.02;;;;;;;-8.52;100.00;101492.13;1466081;89;22381;-79
2024/01/11 07:14:37;;;;;;;159.35;70.97;;;;;;;-8.46;100.00;101486.58;1474473;88;21369;-79
2024/01/11 07:17:04;;;;;;;166.50;75.40;;;;;;;-8.32;100.00;101486.94;1470949;88;21478;-78
2024/01/11 07:19:36;;;;;;;155.50;73.75;;;;;;;-8.19;100.00;101493.77;1453367;89;21501;-78
2024/01/11 07:22:04;;;;;;;152.00;67.25;;;;;;;-8.05;100.00;101486.04;1467883;88;21383;-79
2024/01/11 07:24:37;;;;;;;138.72;64.32;;;;;;;-7.93;100.00;101478.29;1462812;88;21563;-79
2024/01/11 07:27:00;;;;;;;136.03;63.38;;;;;;;-7.83;100.00;101469.67;1469176;88;21419;-82
2024/01/11 07:29:27;;;;;;;135.30;65.95;;;;;;;-7.70;100.00;101474.78;1464861;88;22189;-78
2024/01/11 07:31:54;;;;;;;122.35;58.02;;;;;;;-7.58;100.00;101474.72;1467576;88;21361;-79
2024/01/11 07:34:22;;;;;;;133.37;59.38;;;;;;;-7.47;100.00;101465.23;1464835;88;21382;-77
2024/01/11 07:36:49;;;;;;;118.72;55.88;;;;;;;-7.35;100.00;101451.02;1455268;89;22455;-78
2024/01/11 07:39:16;;;;;;;126.82;55.63;;;;;;;-7.27;100.00;101453.11;1466363;88;21390;-79
2024/01/11 07:41:44;;;;;;;114.12;51.73;;;;;;;-7.24;100.00;101461.69;1465397;88;22505;-78
2024/01/11 07:44:11;;;;;;;108.35;49.38;;;;;;;-7.18;100.00;101459.06;1466867;88;21494;-78
2024/01/11 07:46:38;;;;;;;110.05;52.38;;;;;;;-7.09;100.00;101459.00;1469418;88;21494;-77
2024/01/11 07:49:06;;;;;;;93.33;48.42;;;;;;;-6.98;100.00;101457.20;1463246;88;21604;-78
2024/01/11 07:51:37;;;;;;;99.20;51.08;;;;;;;-6.88;100.00;101457.98;1392758;88;21406;-79
2024/01/11 07:54:04;;;;;;;105.80;49.00;;;;;;;-6.79;100.00;101454.47;1389725;88;21324;-79
2024/01/11 07:56:32;;;;;;;95.50;47.40;;;;;;;-6.70;100.00;101447.95;1399063;88;21368;-78
2024/01/11 07:58:59;;;;;;;94.37;43.92;;;;;;;-6.63;100.00;101449.63;1393985;88;21265;-79
2024/01/11 08:01:26;;;;;;;94.85;45.15;;;;;;;-6.55;100.00;101451.70;1393557;88;21206;-80
2024/01/11 08:03:54;;;;;;;96.97;46.80;;;;;;;-6.50;100.00;101453.80;1393606;88;21265;-78
2024/01/11 08:06:21;;;;;;;95.67;47.53;;;;;;;-6.43;100.00;101450.28;1394074;88;22177;-78
2024/01/11 08:08:51;;;;;;;90.50;44.63;;;;;;;-6.37;100.00;101448.94;1393617;88;21332;-79
2024/01/11 08:11:18;;;;;;;109.87;47.67;;;;;;;-6.32;100.00;101444.19;1493805;89;21515;-78
2024/01/11 08:13:46;;;;;;;93.80;47.27;;;;;;;-6.26;100.00;101441.10;1472892;88;21508;-79
2024/01/11 08:16:18;;;;;;;95.35;46.90;;;;;;;-6.18;100.00;101439.74;1469357;88;22255;-77
2024/01/11 08:18:45;;;;;;;99.10;48.38;;;;;;;-6.11;100.00;101429.77;1428859;88;21597;-79
2024/01/11 08:21:12;;;;;;;90.53;45.83;;;;;;;-6.07;100.00;101437.91;1464994;88;22307;-79
2024/01/11 08:23:44;;;;;;;90.05;45.20;;;;;;;-6.00;100.00;101434.37;1468229;88;21361;-79
2024/01/11 08:26:13;;;;;;;82.85;43.33;;;;;;;-5.97;100.00;101433.48;1475759;88;21383;-79
2024/01/11 08:28:42;;;;;;;84.83;39.48;;;;;;;-5.86;100.00;101420.44;1462658;88;21531;-79
2024/01/11 08:31:09;;;;;;;89.05;44.58;;;;;;;-5.80;100.00;101426.80;1466799;88;21397;-79
2024/01/11 08:33:36;;;;;;;81.47;38.80;;;;;;;-5.77;100.00;101425.47;1470467;88;21382;-78
2024/01/11 08:36:07;;;;;;;88.05;42.15;;;;;;;-5.76;100.00;101419.43;1465110;88;21509;-78
2024/01/11 08:38:35;;;;;;;98.47;42.00;;;;;;;-5.72;100.00;101430.14;1449918;89;21560;-79
2024/01/11 08:41:03;;;;;;;91.95;46.13;;;;;;;-5.59;100.00;101424.37;1468696;89;21383;-79
2024/01/11 08:43:30;;;;;;;89.95;43.28;;;;;;;-5.53;100.00;101417.83;1475971;88;21495;-78
2024/01/11 08:45:57;;;;;;;95.57;45.12;;;;;;;-5.48;100.00;101416.05;1463662;89;21553;-78
2024/01/11 08:48:25;;;;;;;97.80;45.17;;;;;;;-5.43;100.00;101414.27;1467797;88;21309;-79
2024/01/11 08:50:52;;;;;;;94.70;46.68;;;;;;;-5.32;100.00;101410.21;1471118;88;22183;-78
2024/01/11 08:53:20;;;;;;;87.12;44.08;;;;;;;-5.27;100.00;101403.26;1468288;89;22348;-78
2024/01/11 08:55:47;;;;;;;90.67;45.35;;;;;;;-5.20;100.00;101409.20;1467979;88;21450;-78
2024/01/11 08:58:14;;;;;;;100.75;47.93;;;;;;;-5.15;100.00;101406.09;1473837;88;21405;-78
2024/01/11 09:00:41;;;;;;;96.90;45.95;;;;;;;-5.13;100.00;101406.48;1465798;88;21356;-79
2024/01/11 09:03:09;;;;;;;119.13;53.78;;;;;;;-5.02;100.00;101403.30;1464698;89;21375;-79
2024/01/11 09:05:36;;;;;;;114.65;52.60;;;;;;;-4.86;100.00;101403.91;1457675;89;21875;-78
2024/01/11 09:08:06;;;;;;;104.40;47.98;;;;;;;-4.73;100.00;101403.25;1475747;88;21545;-78
2024/01/11 09:10:33;;;;;;;88.17;48.15;;;;;;;-4.59;100.00;101410.76;1460344;88;21442;-79
2024/01/11 09:13:00;;;;;;;90.75;44.45;;;;;;;-4.47;100.00;101410.97;1464565;88;21531;-78
2024/01/11 09:15:27;;;;;;;92.82;48.68;;;;;;;-4.43;97.94;101406.15;1461018;88;21360;-78
2024/01/11 09:17:55;;;;;;;88.05;47.85;;;;;;;-4.37;97.49;101395.72;1470084;89;22344;-78
2024/01/11 09:20:22;;;;;;;93.62;48.45;;;;;;;-4.42;95.19;101384.62;1474172;88;21390;-78
2024/01/11 09:22:49;;;;;;;88.07;47.83;;;;;;;-4.30;95.67;101381.78;1471070;88;22419;-78
2024/01/11 09:25:17;;;;;;;95.22;48.83;;;;;;;-4.23;95.79;101364.00;1463618;88;21368;-78
2024/01/11 09:27:44;;;;;;;90.57;47.93;;;;;;;-4.16;94.41;101369.44;1463358;89;21383;-78
2024/01/11 09:30:12;;;;;;;100.58;47.58;;;;;;;-4.12;94.61;101355.55;1473428;89;21626;-78
2024/01/11 09:32:39;;;;;;;93.92;50.38;;;;;;;-4.15;92.79;101332.35;1471546;88;21558;-78
2024/01/11 09:35:07;;;;;;;98.87;51.25;;;;;;;-4.10;93.36;101327.94;1463713;88;21509;-78
2024/01/11 09:37:34;;;;;;;104.80;54.55;;;;;;;-4.03;94.50;101331.69;1471343;89;22248;-79
2024/01/11 09:40:02;;;;;;;88.87;45.40;;;;;;;-3.98;93.24;101337.62;1468627;89;21663;-78
2024/01/11 09:42:29;;;;;;;98.75;50.95;;;;;;;-3.96;92.21;101330.69;1464169;88;22285;-78
2024/01/11 09:44:57;;;;;;;98.62;53.40;;;;;;;-4.00;91.35;101311.81;1461476;89;21512;-78
2024/01/11 09:47:25;;;;;;;100.58;51.65;;;;;;;-3.93;91.53;101311.22;1463696;88;21628;-79
2024/01/11 09:49:55;;;;;;;108.22;54.65;;;;;;;-3.76;91.81;101310.40;1469567;88;21425;-79
2024/01/11 09:52:25;;;;;;;104.67;55.20;;;;;;;-3.49;89.29;101303.72;1463792;88;21397;-76
2024/01/11 09:54:52;;;;;;;91.15;52.55;;;;;;;-3.31;87.46;101311.50;1456755;89;22292;-77
2024/01/11 09:57:25;;;;;;;98.62;51.68;;;;;;;-3.09;86.90;101310.95;1464239;89;21574;-77
2024/01/11 09:59:56;;;;;;;103.02;57.58;;;;;;;-3.09;88.35;101305.32;1466437;88;21530;-77
2024/01/11 10:02:26;;;;;;;;;;;;;;;-2.92;84.88;101299.70;1471986;89;21463;-77
2024/01/11 10:04:53;;;;;;;123.62;64.60;;;;;;;-2.94;84.31;101305.36;1466355;88;20412;-77
2024/01/11 10:07:27;;;;;;;106.78;57.80;;;;;;;-2.80;84.93;101303.70;1469968;89;21369;-77
2024/01/11 10:09:54;;;;;;;103.97;54.90;;;;;;;-2.65;84.78;101300.69;1470538;89;21404;-76
2024/01/11 10:12:24;;;;;;;108.37;56.73;;;;;;;-2.15;83.87;101290.64;1452330;89;21434;-77
2024/01/11 10:14:54;;;;;;;84.67;47.30;;;;;;;-1.63;81.24;101289.03;1469175;89;21524;-79
2024/01/11 10:17:21;;;;;;;98.62;55.52;;;;;;;-1.46;77.97;101284.60;1472970;89;21619;-78
2024/01/11 10:19:48;;;;;;;94.50;51.33;;;;;;;-1.21;75.55;101273.38;1469734;89;22317;-77
2024/01/11 10:22:17;;;;;;;77.10;42.93;;;;;;;-1.19;73.25;101260.75;1468166;89;21648;-77
2024/01/11 10:24:44;;;;;;;93.50;51.13;;;;;;;-1.38;73.74;101247.55;1464912;88;21618;-77
2024/01/11 10:27:12;;;;;;;98.47;55.40;;;;;;;-1.50;73.51;101242.74;1471373;88;21732;-77
2024/01/11 10:29:39;;;;;;;98.17;55.17;;;;;;;-1.72;75.21;101262.53;1472985;88;21640;-77
2024/01/11 10:32:06;;;;;;;92.23;50.80;;;;;;;-1.98;74.89;101265.95;1461800;88;21586;-77
2024/01/11 10:34:34;;;;;;;91.13;53.03;;;;;;;-2.11;76.95;101265.45;1465360;89;21574;-77
2024/01/11 10:37:01;;;;;;;95.85;54.55;;;;;;;-2.14;78.59;101262.95;1449888;89;21538;-77
2024/01/11 10:39:29;;;;;;;108.50;54.33;;;;;;;-2.21;78.83;101262.75;1465901;89;21537;-77
2024/01/11 10:42:07;;;;;;;95.77;52.95;;;;;;;-2.18;79.91;101273.03;1463518;88;21471;-77
2024/01/11 10:44:35;;;;;;;90.38;49.70;;;;;;;-2.12;80.75;101279.33;1466868;88;21434;-78
2024/01/11 10:47:06;;;;;;;93.25;53.30;;;;;;;-2.12;79.79;101276.73;1466353;88;21405;-78
2024/01/11 10:49:36;;;;;;;92.27;51.40;;;;;;;-2.09;80.75;101274.89;1467921;89;21578;-78
2024/01/11 10:52:08;;;;;;;100.07;53.30;;;;;;;-2.00;81.38;101261.24;1468405;88;21413;-78
2024/01/11 10:54:36;;;;;;;98.92;52.40;;;;;;;-1.73;82.28;101262.11;1450954;89;21354;-78
2024/01/11 10:57:05;;;;;;;82.50;49.90;;;;;;;-1.51;82.58;101256.63;1476497;88;21442;-78
2024/01/11 10:59:35;;;;;;;88.43;46.13;;;;;;;-1.20;81.92;101247.83;1471007;89;21810;-78
2024/01/11 11:02:07;;;;;;;81.43;45.67;;;;;;;-0.99;79.82;101243.63;1450955;89;21492;-78
2024/01/11 11:04:37;;;;;;;82.63;44.50;;;;;;;-0.76;78.54;101257.11;1456264;89;21646;-78